Time;durP1;ratioP1;P1;durP2;ratioP2;P2;SDS_P1;SDS_P2;PMS_P1;PMS_P2;Temp;Humidity;BMP_temperature;BMP_pressure;BME280_temperature;BME280_humidity;BME280_pressure;Samples;Min_cycle;Max_cycle;Signal;HPM_P1;HPM_P2
2021/06/08 00:00:55;;;;;;;12.20;9.05;;;;;;;;;;5014482;28;20022;-49
2021/06/08 00:03:21;;;;;;;11.80;8.88;;;;;;;;;;5014592;28;20030;-49
2021/06/08 00:05:48;;;;;;;13.25;8.73;;;;;;;;;;5014186;28;20018;-47
2021/06/08 00:08:14;;;;;;;12.07;9.18;;;;;;;;;;5013771;28;20037;-47
2021/06/08 00:10:40;;;;;;;12.60;8.57;;;;;;;;;;5014445;28;20022;-47
2021/06/08 00:13:06;;;;;;;11.27;8.73;;;;;;;;;;5013926;28;20064;-49
2021/06/08 00:15:32;;;;;;;11.43;8.90;;;;;;;;;;5013971;28;20480;-48
2021/06/08 00:17:58;;;;;;;12.05;9.23;;;;;;;;;;5013757;28;20030;-48
2021/06/08 00:20:24;;;;;;;12.45;9.77;;;;;;;;;;5013777;28;20034;-50
2021/06/08 00:22:50;;;;;;;10.68;8.40;;;;;;;;;;5014422;28;20093;-48
2021/06/08 00:25:16;;;;;;;13.85;9.70;;;;;;;;;;5013722;28;20011;-48
2021/06/08 00:27:42;;;;;;;11.13;9.25;;;;;;;;;;5014195;28;20065;-48
2021/06/08 00:30:08;;;;;;;11.13;9.13;;;;;;;;;;5016263;28;20369;-48
2021/06/08 00:32:34;;;;;;;12.60;10.38;;;;;;;;;;5013657;28;20048;-48
2021/06/08 00:35:00;;;;;;;13.27;8.93;;;;;;;;;;5013787;28;20037;-48
2021/06/08 00:37:26;;;;;;;10.73;8.73;;;;;;;;;;5014101;28;20030;-48
2021/06/08 00:39:55;;;;;;;13.88;10.05;;;;;;;;;;5019145;28;20369;-48
2021/06/08 00:42:28;;;;;;;11.40;9.40;;;;;;;;;;5013339;28;20034;-47
2021/06/08 00:44:54;;;;;;;;;;;;;;;;;;5014209;28;20462;-48
2021/06/08 00:47:21;;;;;;;11.63;8.80;;;;;;;;;;5013160;28;19957;-48
2021/06/08 00:49:46;;;;;;;13.15;9.93;;;;;;;;;;5014494;28;20518;-47
2021/06/08 00:52:12;;;;;;;13.15;9.60;;;;;;;;;;5013682;28;20030;-47
2021/06/08 00:54:38;;;;;;;16.17;9.90;;;;;;;;;;5013492;28;20597;-47
2021/06/08 00:57:04;;;;;;;12.15;9.65;;;;;;;;;;5012636;28;20033;-49
2021/06/08 00:59:30;;;;;;;11.40;9.15;;;;;;;;;;5012841;28;20120;-48
2021/06/08 01:01:56;;;;;;;13.02;9.95;;;;;;;;;;5014473;28;20018;-49
2021/06/08 01:04:22;;;;;;;13.57;9.40;;;;;;;;;;5017626;28;20021;-49
2021/06/08 01:06:49;;;;;;;12.18;9.18;;;;;;;;;;5013534;28;20058;-49
2021/06/08 01:09:15;;;;;;;13.50;9.43;;;;;;;;;;5013841;28;20050;-49
2021/06/08 01:11:41;;;;;;;11.40;8.95;;;;;;;;;;5013749;28;20026;-50
2021/06/08 01:14:07;;;;;;;10.90;8.52;;;;;;;;;;5013990;28;20362;-48
2021/06/08 01:16:33;;;;;;;11.95;9.07;;;;;;;;;;5012828;28;20366;-51
2021/06/08 01:19:00;;;;;;;10.95;8.95;;;;;;;;;;5023959;28;20080;-49
2021/06/08 01:21:27;;;;;;;10.40;7.97;;;;;;;;;;5013981;28;20022;-49
2021/06/08 01:23:54;;;;;;;12.05;9.07;;;;;;;;;;5013512;28;20080;-51
2021/06/08 01:26:23;;;;;;;12.63;8.75;;;;;;;;;;5013808;28;20050;-49
2021/06/08 01:28:49;;;;;;;11.07;7.70;;;;;;;;;;5018899;28;20022;-49
2021/06/08 01:31:17;;;;;;;11.98;8.85;;;;;;;;;;5016876;28;20133;-49
2021/06/08 01:33:44;;;;;;;11.68;8.48;;;;;;;;;;5006392;28;20108;-50
2021/06/08 01:36:12;;;;;;;12.50;9.05;;;;;;;;;;5011142;28;20496;-49
2021/06/08 01:38:40;;;;;;;10.35;7.80;;;;;;;;;;5012208;28;20066;-49
2021/06/08 01:41:07;;;;;;;12.32;8.80;;;;;;;;;;5013103;28;20568;-49
2021/06/08 01:43:33;;;;;;;10.77;8.25;;;;;;;;;;5013280;28;20021;-51
2021/06/08 01:45:59;;;;;;;11.10;8.25;;;;;;;;;;5013589;28;20482;-50
2021/06/08 01:48:25;;;;;;;12.88;9.48;;;;;;;;;;5013696;28;20030;-52
2021/06/08 01:50:51;;;;;;;13.60;9.35;;;;;;;;;;5013029;28;20032;-49
2021/06/08 01:53:17;;;;;;;11.52;9.52;;;;;;;;;;5017904;28;20033;-49
2021/06/08 01:55:44;;;;;;;14.70;9.27;;;;;;;;;;5020528;28;20040;-50
2021/06/08 01:58:29;;;;;;;12.40;8.80;;;;;;;;;;5012739;28;20062;-49
2021/06/08 02:01:00;;;;;;;11.07;8.88;;;;;;;;;;5012718;28;20104;-49
2021/06/08 02:03:39;;;;;;;12.27;9.68;;;;;;;;;;5003447;28;20065;-50
2021/06/08 02:06:11;;;;;;;11.63;9.38;;;;;;;;;;5013013;28;20026;-49
2021/06/08 02:08:56;;;;;;;11.27;8.50;;;;;;;;;;5022648;28;20105;-49
2021/06/08 02:11:36;;;;;;;12.10;8.35;;;;;;;;;;5001238;28;20037;-49
2021/06/08 02:14:04;;;;;;;11.57;8.55;;;;;;;;;;5022163;28;20036;-49
2021/06/08 02:16:35;;;;;;;10.65;8.23;;;;;;;;;;5012630;28;20100;-49
2021/06/08 02:19:01;;;;;;;14.32;8.95;;;;;;;;;;5010861;28;20110;-49
2021/06/08 02:21:29;;;;;;;10.82;8.80;;;;;;;;;;5012921;28;20032;-49
2021/06/08 02:23:55;;;;;;;14.43;9.73;;;;;;;;;;5024846;28;20108;-49
2021/06/08 02:26:23;;;;;;;12.20;9.05;;;;;;;;;;5012548;28;20533;-49
2021/06/08 02:28:50;;;;;;;10.00;8.65;;;;;;;;;;5018729;28;20026;-51
2021/06/08 02:31:17;;;;;;;14.93;9.77;;;;;;;;;;5017748;28;20042;-50
2021/06/08 02:33:46;;;;;;;14.10;8.82;;;;;;;;;;5018215;28;20101;-49
2021/06/08 02:36:12;;;;;;;13.05;9.63;;;;;;;;;;5023924;28;20028;-49
2021/06/08 02:38:38;;;;;;;11.45;9.18;;;;;;;;;;5018594;28;20042;-48
2021/06/08 02:41:05;;;;;;;13.60;10.65;;;;;;;;;;5018062;28;20060;-50
2021/06/08 02:43:33;;;;;;;13.63;9.77;;;;;;;;;;5016784;28;20018;-49
2021/06/08 02:45:59;;;;;;;13.50;10.77;;;;;;;;;;5016344;28;20038;-50
2021/06/08 02:48:25;;;;;;;15.25;10.75;;;;;;;;;;5016365;28;20124;-50
2021/06/08 02:50:51;;;;;;;15.05;11.57;;;;;;;;;;5016860;28;20036;-49
2021/06/08 02:53:18;;;;;;;13.88;10.68;;;;;;;;;;5016660;28;20462;-49
2021/06/08 02:55:44;;;;;;;13.80;10.48;;;;;;;;;;5016161;28;20554;-49
2021/06/08 02:58:11;;;;;;;12.65;9.77;;;;;;;;;;5016753;28;20037;-49
2021/06/08 03:00:38;;;;;;;15.35;10.82;;;;;;;;;;5015601;28;20034;-50
2021/06/08 03:03:06;;;;;;;12.82;10.90;;;;;;;;;;5015092;28;20030;-50
2021/06/08 03:05:43;;;;;;;14.18;11.00;;;;;;;;;;5015603;28;20030;-49
2021/06/08 03:08:13;;;;;;;15.40;11.75;;;;;;;;;;5017746;28;20125;-51
2021/06/08 03:10:40;;;;;;;13.60;10.13;;;;;;;;;;5015751;28;20109;-50
2021/06/08 03:13:07;;;;;;;14.68;11.77;;;;;;;;;;5015709;28;20482;-51
2021/06/08 03:15:39;;;;;;;13.57;11.23;;;;;;;;;;5015302;28;20101;-49
2021/06/08 03:18:07;;;;;;;12.18;10.13;;;;;;;;;;5015549;28;20088;-52
2021/06/08 03:20:44;;;;;;;16.52;11.27;;;;;;;;;;5015540;28;20034;-49
2021/06/08 03:23:12;;;;;;;14.80;11.30;;;;;;;;;;5023730;28;20033;-49
2021/06/08 03:25:39;;;;;;;14.25;11.27;;;;;;;;;;5015516;28;20137;-49
2021/06/08 03:28:06;;;;;;;14.73;11.80;;;;;;;;;;5019724;28;20108;-49
2021/06/08 03:30:33;;;;;;;16.70;12.77;;;;;;;;;;5019304;28;20048;-49
2021/06/08 03:32:59;;;;;;;13.85;10.63;;;;;;;;;;5017319;28;20128;-49
2021/06/08 03:35:27;;;;;;;13.88;11.20;;;;;;;;;;5015915;28;20037;-51
2021/06/08 03:37:54;;;;;;;14.25;10.80;;;;;;;;;;5012512;28;20128;-49
2021/06/08 03:40:23;;;;;;;12.98;9.82;;;;;;;;;;5014768;28;20022;-49
2021/06/08 03:42:50;;;;;;;12.90;10.88;;;;;;;;;;5013582;28;20022;-50
2021/06/08 03:45:17;;;;;;;14.43;11.10;;;;;;;;;;5015263;28;20546;-50
2021/06/08 03:47:43;;;;;;;14.50;10.60;;;;;;;;;;5016231;28;20022;-53
2021/06/08 03:50:11;;;;;;;13.48;10.20;;;;;;;;;;5015234;28;20421;-49
2021/06/08 03:52:37;;;;;;;14.32;10.50;;;;;;;;;;5016315;28;20038;-50
2021/06/08 03:55:04;;;;;;;12.27;10.30;;;;;;;;;;5015029;28;20046;-49
2021/06/08 03:57:33;;;;;;;12.68;9.68;;;;;;;;;;5017163;28;20116;-51
2021/06/08 03:59:59;;;;;;;13.90;10.32;;;;;;;;;;5021249;28;20042;-51
2021/06/08 04:02:25;;;;;;;11.63;10.10;;;;;;;;;;5020023;28;20034;-50
2021/06/08 04:04:51;;;;;;;13.80;11.32;;;;;;;;;;5014895;28;20022;-49
2021/06/08 04:07:20;;;;;;;13.55;10.02;;;;;;;;;;5014146;28;20470;-51
2021/06/08 04:09:48;;;;;;;15.70;11.38;;;;;;;;;;5014510;28;20036;-51
2021/06/08 04:12:14;;;;;;;13.00;10.27;;;;;;;;;;5024402;28;20041;-51
2021/06/08 04:14:42;;;;;;;14.93;11.43;;;;;;;;;;5016826;28;20057;-54
2021/06/08 04:17:09;;;;;;;12.90;10.40;;;;;;;;;;5016720;28;20113;-53
2021/06/08 04:19:35;;;;;;;14.65;11.43;;;;;;;;;;5014519;28;20051;-50
2021/06/08 04:22:01;;;;;;;13.50;11.27;;;;;;;;;;5014853;28;20097;-51
2021/06/08 04:24:27;;;;;;;14.10;11.02;;;;;;;;;;5014098;28;20101;-54
2021/06/08 04:26:53;;;;;;;14.55;11.52;;;;;;;;;;5019222;28;20093;-50
2021/06/08 04:29:19;;;;;;;12.82;10.45;;;;;;;;;;5018735;28;20034;-52
2021/06/08 04:31:46;;;;;;;16.05;11.65;;;;;;;;;;5016648;28;20134;-49
2021/06/08 04:34:12;;;;;;;15.50;11.43;;;;;;;;;;5016103;28;20061;-51
2021/06/08 04:36:38;;;;;;;13.05;10.25;;;;;;;;;;5018606;28;20056;-49
2021/06/08 04:39:04;;;;;;;15.30;10.80;;;;;;;;;;5019754;28;20026;-50
2021/06/08 04:41:30;;;;;;;17.20;11.02;;;;;;;;;;5019193;28;20417;-51
2021/06/08 04:43:56;;;;;;;13.77;10.48;;;;;;;;;;5016373;28;20038;-50
2021/06/08 04:46:22;;;;;;;14.55;10.27;;;;;;;;;;5013461;28;20030;-49
2021/06/08 04:48:48;;;;;;;14.38;10.43;;;;;;;;;;5014380;28;20062;-49
2021/06/08 04:51:14;;;;;;;12.40;10.20;;;;;;;;;;5012398;28;20108;-50
2021/06/08 04:53:41;;;;;;;12.63;10.07;;;;;;;;;;5015915;28;20053;-49
2021/06/08 04:56:07;;;;;;;11.93;9.52;;;;;;;;;;5012232;28;20661;-50
2021/06/08 04:58:34;;;;;;;11.30;9.25;;;;;;;;;;5013125;28;20033;-51
2021/06/08 05:01:12;;;;;;;12.48;9.60;;;;;;;;;;5019169;28;20026;-52
2021/06/08 05:03:42;;;;;;;12.00;8.98;;;;;;;;;;5016429;28;20075;-54
2021/06/08 05:06:17;;;;;;;10.48;7.95;;;;;;;;;;5011328;28;20485;-51
2021/06/08 05:08:49;;;;;;;11.80;8.07;;;;;;;;;;5015536;28;20076;-54
2021/06/08 05:11:27;;;;;;;9.80;8.47;;;;;;;;;;5019927;28;20022;-51
2021/06/08 05:13:54;;;;;;;11.93;8.35;;;;;;;;;;5016587;28;20038;-49
2021/06/08 05:16:21;;;;;;;8.88;7.45;;;;;;;;;;5014227;28;20352;-52
2021/06/08 05:18:49;;;;;;;12.20;7.70;;;;;;;;;;5027265;28;20033;-51
2021/06/08 05:21:16;;;;;;;9.77;8.02;;;;;;;;;;5024674;28;20078;-55
2021/06/08 05:23:42;;;;;;;9.98;7.55;;;;;;;;;;5018759;28;20057;-51
2021/06/08 05:26:10;;;;;;;10.43;8.20;;;;;;;;;;5022295;28;20056;-50
2021/06/08 05:28:39;;;;;;;12.13;8.13;;;;;;;;;;5015105;28;20041;-52
2021/06/08 05:31:05;;;;;;;11.55;8.23;;;;;;;;;;5017301;28;20030;-50
2021/06/08 05:33:32;;;;;;;13.32;8.38;;;;;;;;;;5018659;28;20037;-53
2021/06/08 05:35:58;;;;;;;12.20;8.45;;;;;;;;;;5027746;28;20029;-50
2021/06/08 05:38:34;;;;;;;9.50;7.80;;;;;;;;;;5021361;28;20040;-53
2021/06/08 05:41:05;;;;;;;11.10;8.07;;;;;;;;;;5025488;28;20120;-50
2021/06/08 05:43:31;;;;;;;11.73;7.97;;;;;;;;;;5025583;28;20481;-52
2021/06/08 05:45:57;;;;;;;14.70;7.95;;;;;;;;;;5021485;28;20026;-51
2021/06/08 05:48:23;;;;;;;14.85;8.38;;;;;;;;;;5024504;28;20037;-50
2021/06/08 05:50:50;;;;;;;16.75;8.15;;;;;;;;;;5028942;28;20030;-50
2021/06/08 05:53:16;;;;;;;12.02;8.20;;;;;;;;;;5031260;28;20029;-50
2021/06/08 05:55:45;;;;;;;10.68;7.57;;;;;;;;;;5014127;28;20072;-52
2021/06/08 05:58:12;;;;;;;12.30;7.60;;;;;;;;;;5010567;28;20029;-54
2021/06/08 06:00:38;;;;;;;11.13;7.40;;;;;;;;;;5017631;28;20039;-55
2021/06/08 06:03:04;;;;;;;9.02;6.88;;;;;;;;;;5021732;28;20373;-54
2021/06/08 06:05:30;;;;;;;13.10;6.78;;;;;;;;;;5009482;28;20022;-51
2021/06/08 06:07:57;;;;;;;8.68;6.88;;;;;;;;;;5013396;28;20037;-51
2021/06/08 06:10:24;;;;;;;8.38;6.25;;;;;;;;;;5023126;28;20025;-54
2021/06/08 06:12:52;;;;;;;7.15;5.93;;;;;;;;;;5031205;28;20041;-52
2021/06/08 06:15:18;;;;;;;9.75;7.00;;;;;;;;;;5018206;28;20040;-54
2021/06/08 06:17:44;;;;;;;9.65;6.53;;;;;;;;;;5031195;28;20029;-50
2021/06/08 06:20:11;;;;;;;10.52;6.20;;;;;;;;;;5013765;28;20083;-52
2021/06/08 06:22:38;;;;;;;10.13;6.63;;;;;;;;;;5011131;28;20359;-51
2021/06/08 06:25:09;;;;;;;12.88;6.90;;;;;;;;;;5012179;28;20454;-53
2021/06/08 06:27:36;;;;;;;10.43;5.60;;;;;;;;;;5015740;28;20127;-55
2021/06/08 06:30:02;;;;;;;7.65;5.57;;;;;;;;;;5024784;28;20382;-55
2021/06/08 06:32:28;;;;;;;10.05;5.60;;;;;;;;;;5020520;28;20684;-52
2021/06/08 06:34:54;;;;;;;9.00;5.68;;;;;;;;;;5016611;28;20025;-53
2021/06/08 06:37:21;;;;;;;9.52;5.88;;;;;;;;;;5015219;28;20093;-52
2021/06/08 06:39:48;;;;;;;9.48;5.10;;;;;;;;;;5020559;28;20026;-52
2021/06/08 06:42:14;;;;;;;9.23;5.40;;;;;;;;;;5023803;28;20065;-53
2021/06/08 06:44:41;;;;;;;8.88;5.65;;;;;;;;;;5018095;28;20021;-50
2021/06/08 06:47:08;;;;;;;7.47;5.15;;;;;;;;;;5012676;28;20050;-55
2021/06/08 06:49:34;;;;;;;8.43;5.38;;;;;;;;;;5011085;28;20068;-50
2021/06/08 06:52:02;;;;;;;10.15;5.32;;;;;;;;;;5011238;28;20047;-55
2021/06/08 06:54:30;;;;;;;6.60;5.32;;;;;;;;;;5010561;28;20033;-55
2021/06/08 06:56:57;;;;;;;8.65;5.18;;;;;;;;;;5010530;28;20034;-53
2021/06/08 06:59:23;;;;;;;5.60;4.50;;;;;;;;;;5011341;28;20042;-50
2021/06/08 07:01:49;;;;;;;5.60;4.57;;;;;;;;;;5011677;28;20438;-52
2021/06/08 07:04:16;;;;;;;5.78;4.45;;;;;;;;;;5010933;28;20026;-53
2021/06/08 07:06:42;;;;;;;8.60;5.65;;;;;;;;;;5010841;28;20061;-53
2021/06/08 07:09:08;;;;;;;6.88;5.07;;;;;;;;;;5010954;28;20026;-54
2021/06/08 07:11:34;;;;;;;9.20;5.00;;;;;;;;;;5010835;28;20034;-55
2021/06/08 07:14:01;;;;;;;12.07;5.97;;;;;;;;;;5012070;28;20037;-51
2021/06/08 07:16:27;;;;;;;8.80;5.05;;;;;;;;;;5014542;28;20137;-51
2021/06/08 07:18:53;;;;;;;8.00;4.50;;;;;;;;;;5011277;28;20402;-53
2021/06/08 07:21:20;;;;;;;8.52;4.63;;;;;;;;;;5021320;28;20029;-54
2021/06/08 07:23:48;;;;;;;10.82;5.38;;;;;;;;;;5018718;28;20529;-52
2021/06/08 07:26:17;;;;;;;5.85;4.93;;;;;;;;;;5022128;28;20022;-52
2021/06/08 07:28:44;;;;;;;7.68;4.63;;;;;;;;;;5018961;28;20360;-53
2021/06/08 07:31:13;;;;;;;6.93;4.20;;;;;;;;;;5017155;28;20055;-55
2021/06/08 07:33:44;;;;;;;7.05;4.05;;;;;;;;;;5016878;28;20110;-53
2021/06/08 07:36:16;;;;;;;15.90;4.30;;;;;;;;;;5014603;28;20390;-53
2021/06/08 07:38:47;;;;;;;6.50;3.70;;;;;;;;;;5017754;28;20061;-54
2021/06/08 07:41:16;;;;;;;7.60;4.13;;;;;;;;;;5018775;28;20030;-52
2021/06/08 07:43:47;;;;;;;5.65;4.07;;;;;;;;;;5018778;28;20132;-54
2021/06/08 07:46:14;;;;;;;11.50;3.95;;;;;;;;;;5018794;28;20029;-53
2021/06/08 07:48:43;;;;;;;5.07;3.33;;;;;;;;;;5029668;28;20561;-51
2021/06/08 07:51:10;;;;;;;6.80;3.67;;;;;;;;;;5016878;28;20113;-51
2021/06/08 07:53:36;;;;;;;5.35;3.55;;;;;;;;;;5033506;28;20036;-54
2021/06/08 07:56:03;;;;;;;6.38;3.70;;;;;;;;;;5031605;28;20033;-51
2021/06/08 07:58:29;;;;;;;7.65;3.55;;;;;;;;;;5014817;28;20041;-53
2021/06/08 08:00:57;;;;;;;4.93;3.63;;;;;;;;;;5020146;28;20026;-51
2021/06/08 08:03:27;;;;;;;3.13;2.83;;;;;;;;;;5021636;28;20056;-52
2021/06/08 08:06:04;;;;;;;5.10;3.08;;;;;;;;;;5021240;28;20470;-51
2021/06/08 08:08:34;;;;;;;4.60;2.85;;;;;;;;;;5020099;28;20036;-53
2021/06/08 08:11:01;;;;;;;4.97;3.35;;;;;;;;;;5033677;28;20067;-52
2021/06/08 08:13:28;;;;;;;3.28;2.42;;;;;;;;;;5034171;28;20080;-52
2021/06/08 08:15:55;;;;;;;4.72;2.97;;;;;;;;;;5021247;28;20425;-51
2021/06/08 08:18:22;;;;;;;4.70;3.30;;;;;;;;;;5034514;28;20040;-50
2021/06/08 08:20:53;;;;;;;3.97;3.00;;;;;;;;;;5017660;28;20108;-51
2021/06/08 08:23:20;;;;;;;6.40;3.20;;;;;;;;;;5026358;28;20389;-50
2021/06/08 08:25:46;;;;;;;3.90;3.10;;;;;;;;;;5018708;28;20466;-50
2021/06/08 08:28:13;;;;;;;5.15;3.10;;;;;;;;;;5022619;28;20025;-51
2021/06/08 08:30:39;;;;;;;4.07;3.28;;;;;;;;;;5026699;28;20551;-53
2021/06/08 08:33:06;;;;;;;4.28;3.60;;;;;;;;;;5023058;28;20108;-52
2021/06/08 08:35:33;;;;;;;3.50;3.10;;;;;;;;;;5021874;28;20038;-51
2021/06/08 08:38:00;;;;;;;5.13;3.50;;;;;;;;;;5033900;28;20048;-54
2021/06/08 08:40:26;;;;;;;5.95;3.22;;;;;;;;;;5033911;28;20468;-50
2021/06/08 08:42:52;;;;;;;3.75;3.13;;;;;;;;;;5033730;28;20461;-55
2021/06/08 08:45:18;;;;;;;5.97;3.38;;;;;;;;;;5029769;28;20133;-52
2021/06/08 08:47:45;;;;;;;5.55;3.20;;;;;;;;;;5014077;28;20030;-51
2021/06/08 08:50:15;;;;;;;4.35;3.47;;;;;;;;;;5013901;28;20022;-50
2021/06/08 08:52:44;;;;;;;6.75;3.25;;;;;;;;;;5013973;28;20038;-51
2021/06/08 08:55:10;;;;;;;8.45;3.33;;;;;;;;;;5012655;28;20034;-50
2021/06/08 08:57:36;;;;;;;9.98;4.03;;;;;;;;;;5013704;28;20101;-51
2021/06/08 09:00:05;;;;;;;4.60;2.88;;;;;;;;;;5013529;28;20521;-53
2021/06/08 09:02:32;;;;;;;4.03;2.90;;;;;;;;;;5013443;28;20065;-52
2021/06/08 09:04:59;;;;;;;3.75;2.70;;;;;;;;;;5013682;28;20107;-53
2021/06/08 09:07:26;;;;;;;4.38;3.00;;;;;;;;;;5013298;28;20033;-53
2021/06/08 09:09:52;;;;;;;5.88;3.20;;;;;;;;;;5013146;28;20034;-51
2021/06/08 09:12:18;;;;;;;7.30;3.67;;;;;;;;;;5013323;28;20429;-51
2021/06/08 09:14:44;;;;;;;4.40;3.35;;;;;;;;;;5012909;28;20529;-55
2021/06/08 09:17:10;;;;;;;8.55;3.40;;;;;;;;;;5012931;28;20034;-52
2021/06/08 09:19:36;;;;;;;4.15;2.95;;;;;;;;;;5013227;28;20109;-50
2021/06/08 09:22:03;;;;;;;5.32;3.53;;;;;;;;;;5011909;28;20518;-50
2021/06/08 09:24:30;;;;;;;5.57;3.13;;;;;;;;;;5013034;28;20030;-51
2021/06/08 09:27:06;;;;;;;5.60;3.00;;;;;;;;;;5012814;28;20046;-50
2021/06/08 09:29:35;;;;;;;3.17;2.88;;;;;;;;;;5011619;28;20545;-52
2021/06/08 09:32:20;;;;;;;5.85;3.45;;;;;;;;;;5009587;28;20034;-55
2021/06/08 09:34:47;;;;;;;7.65;3.05;;;;;;;;;;5005824;28;20028;-52
2021/06/08 09:37:14;;;;;;;4.88;2.70;;;;;;;;;;5011724;28;20037;-52
2021/06/08 09:39:47;;;;;;;5.13;3.42;;;;;;;;;;5012674;28;20038;-52
2021/06/08 09:42:23;;;;;;;4.72;3.55;;;;;;;;;;5010900;28;20045;-50
2021/06/08 09:44:49;;;;;;;4.07;2.97;;;;;;;;;;5014206;28;20026;-51
2021/06/08 09:47:25;;;;;;;7.63;3.35;;;;;;;;;;5012105;28;20025;-50
2021/06/08 09:49:51;;;;;;;3.08;2.78;;;;;;;;;;5013255;28;20119;-50
2021/06/08 09:52:18;;;;;;;5.50;3.28;;;;;;;;;;5012620;28;20038;-50
2021/06/08 09:54:46;;;;;;;6.07;3.15;;;;;;;;;;5011957;28;20033;-51
2021/06/08 09:57:19;;;;;;;3.58;2.90;;;;;;;;;;5011822;28;20365;-52
2021/06/08 09:59:50;;;;;;;4.40;3.28;;;;;;;;;;5013034;28;20083;-51
2021/06/08 10:02:27;;;;;;;4.57;3.50;;;;;;;;;;5005383;28;20035;-51
2021/06/08 10:04:53;;;;;;;3.45;3.08;;;;;;;;;;5007676;28;20036;-51
2021/06/08 10:07:29;;;;;;;4.38;3.53;;;;;;;;;;5012674;28;20113;-51
2021/06/08 10:10:07;;;;;;;3.45;2.95;;;;;;;;;;5015490;28;20116;-50
2021/06/08 10:12:33;;;;;;;3.75;3.13;;;;;;;;;;5016620;28;20065;-51
2021/06/08 10:15:09;;;;;;;5.32;3.63;;;;;;;;;;5010515;28;20080;-50
2021/06/08 10:17:37;;;;;;;7.63;3.65;;;;;;;;;;5012747;28;20048;-55
2021/06/08 10:20:23;;;;;;;5.18;3.20;;;;;;;;;;5012022;28;20634;-50
2021/06/08 10:22:49;;;;;;;3.67;3.10;;;;;;;;;;5008294;28;20030;-51
2021/06/08 10:25:15;;;;;;;4.60;3.22;;;;;;;;;;5021889;28;20025;-52
2021/06/08 10:27:41;;;;;;;4.18;2.85;;;;;;;;;;5012137;28;20018;-51
2021/06/08 10:30:08;;;;;;;3.33;2.60;;;;;;;;;;5012780;28;20070;-53
2021/06/08 10:32:35;;;;;;;3.65;2.80;;;;;;;;;;5011490;28;20564;-51
2021/06/08 10:35:01;;;;;;;4.53;3.22;;;;;;;;;;5017039;28;20133;-50
2021/06/08 10:37:27;;;;;;;8.80;3.30;;;;;;;;;;5016205;28;20031;-51
2021/06/08 10:39:55;;;;;;;5.00;2.72;;;;;;;;;;5011609;28;20029;-53
2021/06/08 10:42:21;;;;;;;4.70;3.20;;;;;;;;;;5014300;28;20029;-52
2021/06/08 10:44:48;;;;;;;4.65;2.63;;;;;;;;;;5018408;28;20014;-50
2021/06/08 10:47:51;;;;;;;3.97;2.63;;;;;;;;;;5024340;28;20108;-52
2021/06/08 10:50:23;;;;;;;6.95;3.05;;;;;;;;;;5032870;28;20037;-54
2021/06/08 10:52:49;;;;;;;4.57;2.80;;;;;;;;;;5034798;28;20100;-51
2021/06/08 10:55:15;;;;;;;4.35;2.88;;;;;;;;;;5032138;28;20022;-51
2021/06/08 10:57:46;;;;;;;4.93;2.88;;;;;;;;;;5034229;28;20450;-50
2021/06/08 11:00:24;;;;;;;4.55;3.47;;;;;;;;;;5030992;28;20431;-54
2021/06/08 11:02:56;;;;;;;4.25;3.22;;;;;;;;;;5025264;28;20388;-52
2021/06/08 11:05:41;;;;;;;3.75;3.08;;;;;;;;;;5032825;28;20022;-52
2021/06/08 11:08:07;;;;;;;3.95;3.03;;;;;;;;;;5026652;28;20112;-51
2021/06/08 11:10:43;;;;;;;3.50;3.10;;;;;;;;;;5028985;28;20025;-51
2021/06/08 11:13:09;;;;;;;5.68;3.38;;;;;;;;;;5019066;28;20359;-52
2021/06/08 11:15:36;;;;;;;3.17;2.80;;;;;;;;;;5024681;28;20364;-51
2021/06/08 11:18:22;;;;;;;3.47;3.00;;;;;;;;;;5020206;28;20500;-50
2021/06/08 11:20:50;;;;;;;6.88;3.10;;;;;;;;;;5024788;28;20021;-54
2021/06/08 11:23:35;;;;;;;5.82;3.08;;;;;;;;;;5025914;28;20097;-51
2021/06/08 11:26:01;;;;;;;3.88;3.25;;;;;;;;;;5023751;28;20112;-51
2021/06/08 11:28:54;;;;;;;9.63;2.78;;;;;;;;;;5033924;28;20160;-51
2021/06/08 11:31:23;;;;;;;3.72;2.72;;;;;;;;;;5016971;28;20084;-50
2021/06/08 11:33:50;;;;;;;3.60;2.88;;;;;;;;;;5014044;28;20374;-52
2021/06/08 11:36:20;;;;;;;5.57;3.05;;;;;;;;;;5017414;28;20057;-50
2021/06/08 11:38:46;;;;;;;3.90;2.95;;;;;;;;;;5014756;28;20025;-51
2021/06/08 11:41:13;;;;;;;6.38;3.17;;;;;;;;;;5014091;28;20096;-50
2021/06/08 11:43:43;;;;;;;4.28;3.65;;;;;;;;;;5017739;28;20097;-52
2021/06/08 11:46:17;;;;;;;6.45;3.20;;;;;;;;;;5017964;28;20332;-52
2021/06/08 11:48:44;;;;;;;3.15;2.85;;;;;;;;;;5014806;28;20053;-52
2021/06/08 11:51:10;;;;;;;5.60;3.08;;;;;;;;;;5015139;28;20665;-53
2021/06/08 11:53:56;;;;;;;3.33;2.58;;;;;;;;;;5012998;28;20026;-51
2021/06/08 11:56:40;;;;;;;3.47;2.75;;;;;;;;;;5016675;28;20440;-53
2021/06/08 11:59:07;;;;;;;5.75;3.30;;;;;;;;;;5015475;28;20038;-50
2021/06/08 12:01:38;;;;;;;3.38;2.92;;;;;;;;;;5022815;28;20014;-51
2021/06/08 12:04:04;;;;;;;4.60;3.10;;;;;;;;;;5021448;28;20148;-50
2021/06/08 12:06:48;;;;;;;3.35;2.72;;;;;;;;;;5014586;28;20029;-52
2021/06/08 12:09:17;;;;;;;5.65;3.25;;;;;;;;;;5016781;28;20038;-51
2021/06/08 12:11:43;;;;;;;3.58;3.10;;;;;;;;;;5014598;28;20109;-51
2021/06/08 12:14:09;;;;;;;4.20;3.20;;;;;;;;;;5014441;28;20022;-52
2021/06/08 12:16:35;;;;;;;6.95;3.58;;;;;;;;;;5013005;28;20109;-53
2021/06/08 12:19:08;;;;;;;5.45;2.53;;;;;;;;;;5018108;28;20030;-52
2021/06/08 12:21:34;;;;;;;6.40;2.97;;;;;;;;;;5021692;28;20017;-51
2021/06/08 12:24:00;;;;;;;4.53;3.25;;;;;;;;;;5015466;28;20022;-51
2021/06/08 12:26:27;;;;;;;3.90;2.80;;;;;;;;;;5020516;28;20022;-51
2021/06/08 12:29:04;;;;;;;5.95;2.70;;;;;;;;;;5020019;28;20343;-50
2021/06/08 12:31:30;;;;;;;2.88;2.58;;;;;;;;;;5031181;28;20124;-50
2021/06/08 12:33:57;;;;;;;4.57;3.30;;;;;;;;;;5028553;28;20029;-53
2021/06/08 12:36:23;;;;;;;8.85;3.38;;;;;;;;;;5025825;28;20033;-50
2021/06/08 12:38:53;;;;;;;4.60;2.80;;;;;;;;;;5033535;28;20088;-51
2021/06/08 12:41:27;;;;;;;2.95;2.65;;;;;;;;;;5016762;28;20461;-51
2021/06/08 12:43:55;;;;;;;3.28;2.42;;;;;;;;;;5033428;28;20025;-53
2021/06/08 12:46:25;;;;;;;7.57;2.45;;;;;;;;;;5021774;28;20026;-50
2021/06/08 12:49:03;;;;;;;3.10;2.53;;;;;;;;;;5010996;28;20656;-54
2021/06/08 12:51:33;;;;;;;5.55;2.40;;;;;;;;;;5019848;28;20050;-51
2021/06/08 12:54:00;;;;;;;2.40;1.95;;;;;;;;;;5013269;28;20113;-52
2021/06/08 12:56:26;;;;;;;9.95;2.83;;;;;;;;;;5015890;28;20025;-51
2021/06/08 12:58:52;;;;;;;4.25;2.40;;;;;;;;;;5023866;28;20080;-50
2021/06/08 13:01:18;;;;;;;3.63;2.10;;;;;;;;;;5031433;28;20021;-51
2021/06/08 13:03:45;;;;;;;2.72;2.17;;;;;;;;;;5021116;28;20509;-51
2021/06/08 13:06:12;;;;;;;6.95;3.00;;;;;;;;;;5026055;28;20331;-52
2021/06/08 13:08:42;;;;;;;3.55;2.67;;;;;;;;;;5017111;28;20374;-50
2021/06/08 13:11:18;;;;;;;4.32;2.55;;;;;;;;;;5019693;28;20080;-51
2021/06/08 13:13:44;;;;;;;6.75;2.60;;;;;;;;;;5021040;28;20025;-50
2021/06/08 13:16:27;;;;;;;3.00;2.17;;;;;;;;;;5025322;28;20025;-50
2021/06/08 13:18:53;;;;;;;4.25;2.47;;;;;;;;;;5013711;28;20484;-54
2021/06/08 13:21:28;;;;;;;4.00;2.22;;;;;;;;;;5013669;28;20022;-52
2021/06/08 13:24:09;;;;;;;3.05;2.38;;;;;;;;;;5012573;28;20154;-51
2021/06/08 13:26:35;;;;;;;3.13;2.15;;;;;;;;;;5019124;28;20085;-52
2021/06/08 13:29:12;;;;;;;4.68;2.42;;;;;;;;;;5029042;28;20033;-52
2021/06/08 13:31:41;;;;;;;2.75;1.92;;;;;;;;;;5018945;28;20117;-53
2021/06/08 13:34:36;;;;;;;6.20;2.45;;;;;;;;;;5008014;28;20061;-51
2021/06/08 13:37:06;;;;;;;7.53;2.60;;;;;;;;;;5016466;28;20048;-51
2021/06/08 13:39:37;;;;;;;2.50;2.15;;;;;;;;;;5032472;28;20101;-54
2021/06/08 13:42:12;;;;;;;3.97;2.47;;;;;;;;;;5019197;28;20058;-53
2021/06/08 13:44:38;;;;;;;2.33;2.10;;;;;;;;;;5028478;28;20472;-50
2021/06/08 13:47:04;;;;;;;2.28;1.83;;;;;;;;;;5028483;28;20045;-51
2021/06/08 13:49:43;;;;;;;6.95;2.30;;;;;;;;;;5019738;28;20132;-53
2021/06/08 13:52:10;;;;;;;2.45;2.20;;;;;;;;;;5014641;28;20029;-51
2021/06/08 13:54:37;;;;;;;2.75;2.10;;;;;;;;;;5025264;28;20489;-51
2021/06/08 13:57:25;;;;;;;3.20;2.30;;;;;;;;;;5031269;28;20116;-53
2021/06/08 14:02:42;;;;;;;3.30;1.90;;;;;;;;;;5009120;28;20037;-50
2021/06/08 14:05:08;;;;;;;4.57;1.92;;;;;;;;;;5021005;28;20025;-51
2021/06/08 14:07:34;;;;;;;4.93;1.90;;;;;;;;;;5023392;28;20105;-52
2021/06/08 14:10:05;;;;;;;3.53;2.10;;;;;;;;;;5012211;28;20137;-51
2021/06/08 14:12:32;;;;;;;3.10;2.30;;;;;;;;;;5012553;28;20457;-55
2021/06/08 14:15:08;;;;;;;3.55;2.20;;;;;;;;;;5015633;28;20033;-55
2021/06/08 14:17:34;;;;;;;2.60;2.25;;;;;;;;;;5020095;28;20690;-55
2021/06/08 14:20:00;;;;;;;5.93;2.10;;;;;;;;;;5019054;28;20033;-53
2021/06/08 14:22:26;;;;;;;2.38;1.88;;;;;;;;;;5023994;28;20517;-53
2021/06/08 14:24:52;;;;;;;2.92;1.90;;;;;;;;;;5013208;28;20041;-52
2021/06/08 14:27:19;;;;;;;3.05;1.90;;;;;;;;;;5022493;28;20428;-53
2021/06/08 14:29:46;;;;;;;4.22;1.90;;;;;;;;;;5016520;28;20034;-56
2021/06/08 14:32:12;;;;;;;4.85;2.15;;;;;;;;;;5019075;28;20512;-52
2021/06/08 14:34:38;;;;;;;3.53;1.92;;;;;;;;;;5011690;28;20108;-56
2021/06/08 14:37:07;;;;;;;2.72;2.05;;;;;;;;;;5010428;28;20152;-52
2021/06/08 14:39:33;;;;;;;3.13;1.65;;;;;;;;;;5012154;28;20061;-55
2021/06/08 14:41:59;;;;;;;3.35;2.20;;;;;;;;;;5011466;28;20462;-56
2021/06/08 14:44:25;;;;;;;4.00;1.95;;;;;;;;;;5022155;28;20101;-55
2021/06/08 14:46:51;;;;;;;2.80;1.90;;;;;;;;;;5009812;28;20466;-55